EDDM

Munich International Airport

Munich, Germany
METAR EDDM 201250Z 34004KT 300V010 9999 FEW028 OVC040 14/08 Q1028 NOSIG
Observed Flight Rules
Oct-20 @ 12:50 UTC (37 minutes ago) Visual Flight Rules
Wind Visibility Clouds
340° at 4 knots 10,000+ meters
  • Few at 2,800' AGL
  • Overcast at 4,000' AGL
Temperatures Readings
Current 14°C / 57°F
Dewpoint 8°C / 46°F
Humidity 67%
Altimeter 30.35" Hg
Pressure 1028 hPa
Elevation 447
METAR EDDM 201250Z 34004KT 300V010 9999 FEW028 OVC040 14/08 Q1028 NOSIG
Observed Flight Rules
Oct-20 @ 12:50 UTC
(37 minutes ago)
VFR
Wind Visibility
340° at 4 knots 10,000+ meters
Clouds
  • Few at 2,800' AGL
  • Overcast at 4,000' AGL
Temperature Dewpoint
14°C / 57°F 8°C / 46°F
Humidity Altimeter Pressure
67% 30.35" Hg 1028 hPa